createdAt,value
2022-08-24T00:01:04.258Z,71.46
2022-08-24T00:03:57.253Z,71.50
2022-08-24T00:06:46.616Z,71.70
2022-08-24T00:09:35.713Z,73.05
2022-08-24T00:12:24.756Z,73.15
2022-08-24T00:15:08.034Z,74.26
2022-08-24T00:17:56.746Z,73.68
2022-08-24T00:20:45.707Z,73.67
2022-08-24T00:23:27.980Z,73.93
2022-08-24T00:26:28.500Z,74.34
2022-08-24T00:29:11.322Z,74.52
2022-08-24T00:32:01.805Z,74.46
2022-08-24T00:34:58.627Z,73.51
2022-08-24T00:37:49.716Z,73.31
2022-08-24T00:40:36.744Z,73.68
2022-08-24T00:43:26.661Z,74.45
2022-08-24T00:46:24.732Z,73.10
2022-08-24T00:49:27.206Z,73.67
2022-08-24T00:52:35.626Z,74.71
2022-08-24T00:55:36.738Z,73.30
2022-08-24T00:58:44.618Z,73.18
2022-08-24T01:01:33.716Z,75.28
2022-08-24T01:04:21.480Z,74.33
2022-08-24T01:07:11.761Z,76.15
2022-08-24T01:09:57.417Z,74.94
2022-08-24T01:12:59.991Z,74.33
2022-08-24T01:15:49.006Z,73.42
2022-08-24T01:18:59.619Z,74.01
2022-08-24T01:22:00.077Z,73.43
2022-08-24T01:24:44.637Z,72.76
2022-08-24T01:27:37.056Z,72.73
2022-08-24T01:30:21.717Z,73.17
2022-08-24T01:33:29.773Z,72.50
2022-08-24T01:36:33.035Z,72.63
2022-08-24T01:39:55.038Z,72.56
2022-08-24T01:42:37.989Z,71.67
2022-08-24T01:45:27.645Z,72.00
2022-08-24T01:48:13.039Z,72.28
2022-08-24T01:51:01.705Z,72.39
2022-08-24T01:53:51.632Z,72.37
2022-08-24T01:56:42.709Z,71.88
2022-08-24T01:59:24.967Z,71.08
2022-08-24T02:02:27.738Z,70.27
2022-08-24T02:05:10.788Z,69.84
2022-08-24T02:08:01.802Z,69.73
2022-08-24T02:10:45.924Z,70.10
2022-08-24T02:13:56.726Z,69.85
2022-08-24T02:16:46.626Z,70.13
2022-08-24T02:19:41.734Z,69.84
2022-08-24T02:22:30.119Z,68.35
2022-08-24T02:25:14.125Z,66.87
2022-08-24T02:28:03.085Z,65.99
2022-08-24T02:30:44.721Z,66.09
2022-08-24T02:33:33.646Z,65.23
2022-08-24T02:36:26.706Z,65.07
2022-08-24T02:39:17.009Z,65.19
2022-08-24T02:41:59.700Z,64.87
2022-08-24T02:44:47.894Z,64.98
2022-08-24T02:47:37.981Z,63.72
2022-08-24T02:50:27.627Z,64.73
2022-08-24T02:53:16.749Z,65.82
2022-08-24T02:56:05.641Z,65.99
2022-08-24T02:58:54.820Z,65.38
2022-08-24T03:01:43.210Z,63.53
2022-08-24T03:04:26.768Z,63.57
2022-08-24T03:07:09.802Z,63.52
2022-08-24T03:09:58.726Z,62.68
2022-08-24T03:12:55.726Z,62.83
2022-08-24T03:15:47.685Z,63.79
2022-08-24T03:18:31.593Z,63.67
2022-08-24T03:21:22.615Z,63.09
2022-08-24T03:24:14.632Z,63.63
2022-08-24T03:27:05.337Z,63.75
2022-08-24T03:29:48.784Z,62.88
2022-08-24T03:32:39.183Z,63.26
2022-08-24T03:35:22.711Z,63.93
2022-08-24T03:38:11.690Z,62.89
2022-08-24T03:41:00.686Z,64.00
2022-08-24T03:43:56.645Z,65.09
2022-08-24T03:46:50.745Z,62.05
2022-08-24T03:49:42.626Z,62.39
2022-08-24T03:52:34.035Z,62.84
2022-08-24T03:55:23.617Z,61.92
2022-08-24T03:58:12.711Z,61.04
2022-08-24T04:01:02.716Z,59.54
2022-08-24T04:03:51.161Z,61.00
2022-08-24T04:06:46.767Z,60.28
2022-08-24T04:09:30.061Z,59.27
2022-08-24T04:12:18.704Z,59.68
2022-08-24T04:15:18.681Z,59.33
2022-08-24T04:18:13.712Z,60.11
2022-08-24T04:21:02.741Z,58.68
2022-08-24T04:23:47.603Z,57.63
2022-08-24T04:26:45.696Z,58.17
2022-08-24T04:29:35.611Z,59.26
2022-08-24T04:32:18.074Z,59.27
2022-08-24T04:35:09.597Z,58.28
2022-08-24T04:37:51.671Z,57.78
2022-08-24T04:40:40.625Z,58.52
2022-08-24T04:43:24.684Z,57.75
2022-08-24T04:46:18.634Z,57.73
2022-08-24T04:49:01.957Z,57.52
2022-08-24T04:51:51.612Z,57.12
2022-08-24T04:54:41.727Z,57.88
2022-08-24T04:57:30.007Z,58.54
2022-08-24T05:00:19.685Z,58.75
2022-08-24T05:03:02.064Z,58.40
2022-08-24T05:05:54.641Z,58.22
2022-08-24T05:08:36.911Z,56.66
2022-08-24T05:11:27.707Z,56.38
2022-08-24T05:14:11.223Z,57.90
2022-08-24T05:17:06.775Z,53.95
2022-08-24T05:19:59.520Z,56.26
2022-08-24T05:22:43.765Z,55.85
2022-08-24T05:25:47.573Z,56.19
2022-08-24T05:28:36.747Z,53.41
2022-08-24T05:31:25.958Z,54.54
2022-08-24T05:34:20.627Z,55.24
2022-08-24T05:37:12.627Z,54.18
2022-08-24T05:40:23.714Z,56.47
2022-08-24T05:43:06.995Z,56.14
2022-08-24T05:46:01.602Z,54.55
2022-08-24T05:48:53.038Z,54.53
2022-08-24T05:51:40.631Z,55.61
2022-08-24T05:54:29.999Z,57.35
2022-08-24T05:57:13.726Z,56.05
2022-08-24T06:00:20.636Z,56.58
2022-08-24T06:03:11.969Z,56.98
2022-08-24T06:06:06.604Z,53.60
2022-08-24T06:08:51.909Z,53.51
2022-08-24T06:11:44.673Z,55.49
2022-08-24T06:14:27.221Z,50.27
2022-08-24T06:17:16.853Z,51.91
2022-08-24T06:20:12.583Z,51.57
2022-08-24T06:23:02.842Z,52.21
2022-08-24T06:26:10.058Z,52.64
2022-08-24T06:29:02.713Z,51.42
2022-08-24T06:31:54.615Z,53.02
2022-08-24T06:34:46.618Z,52.10
2022-08-24T06:37:36.690Z,52.17
2022-08-24T06:40:29.694Z,52.73
2022-08-24T06:43:18.704Z,53.67
2022-08-24T06:46:02.164Z,53.24
2022-08-24T06:48:55.612Z,53.48
2022-08-24T06:51:48.667Z,52.82
2022-08-24T06:54:32.700Z,52.49
2022-08-24T06:57:22.727Z,51.53
2022-08-24T07:00:06.026Z,52.28
2022-08-24T07:02:54.650Z,50.94
2022-08-24T07:05:44.632Z,49.40
2022-08-24T07:08:47.549Z,51.04
2022-08-24T07:11:36.647Z,51.72
2022-08-24T07:14:27.062Z,52.30
2022-08-24T07:17:10.771Z,53.59
2022-08-24T07:20:05.540Z,50.50
2022-08-24T07:23:42.020Z,49.83
2022-08-24T07:26:33.724Z,50.37
2022-08-24T07:32:30.929Z,52.48
2022-08-24T07:35:20.769Z,54.29
2022-08-24T07:38:11.015Z,52.80
2022-08-24T07:41:20.309Z,52.00
2022-08-24T07:43:57.835Z,52.93
2022-08-24T07:46:46.804Z,52.02
2022-08-24T07:49:36.817Z,51.84
2022-08-24T07:52:26.621Z,52.23
2022-08-24T07:55:17.097Z,51.16
2022-08-24T07:57:59.615Z,53.66
2022-08-24T08:00:47.982Z,54.31
2022-08-24T08:03:31.592Z,52.50
2022-08-24T08:06:21.015Z,52.54
2022-08-24T08:09:08.608Z,53.63
2022-08-24T08:11:58.728Z,53.57
2022-08-24T08:14:42.166Z,54.09
2022-08-24T08:17:31.740Z,54.17
2022-08-24T08:20:23.706Z,53.12
2022-08-24T08:23:46.602Z,55.40
2022-08-24T08:27:00.706Z,53.38
2022-08-24T08:29:53.665Z,52.57
2022-08-24T08:32:42.621Z,53.35
2022-08-24T08:35:31.985Z,54.43
2022-08-24T08:38:16.631Z,54.52
2022-08-24T08:41:45.995Z,54.01
2022-08-24T08:44:51.631Z,54.02
2022-08-24T08:48:11.768Z,54.50
2022-08-24T08:51:22.023Z,54.43
2022-08-24T08:54:25.722Z,53.66
2022-08-24T08:57:17.313Z,52.88
2022-08-24T09:00:16.090Z,52.81
2022-08-24T09:03:25.715Z,54.06
2022-08-24T09:06:49.691Z,53.38
2022-08-24T09:09:56.284Z,53.03
2022-08-24T09:13:27.727Z,52.30
2022-08-24T09:16:52.677Z,52.15
2022-08-24T09:19:44.739Z,52.69
2022-08-24T09:22:33.642Z,52.42
2022-08-24T09:25:36.617Z,53.78
2022-08-24T09:28:41.447Z,52.28
2022-08-24T09:31:40.693Z,53.42
2022-08-24T09:34:57.701Z,53.17
2022-08-24T09:38:01.865Z,52.40
2022-08-24T09:41:02.719Z,52.49
2022-08-24T09:43:45.007Z,52.40
2022-08-24T09:46:57.739Z,54.41
2022-08-24T09:49:58.013Z,54.25
2022-08-24T09:53:23.721Z,53.77
2022-08-24T09:56:36.650Z,52.76
2022-08-24T09:59:47.631Z,52.77
2022-08-24T10:02:33.126Z,52.87
2022-08-24T10:05:48.833Z,54.21
2022-08-24T10:09:13.636Z,52.47
2022-08-24T10:12:38.640Z,52.78
2022-08-24T10:15:36.020Z,54.64
2022-08-24T10:18:58.591Z,53.96
2022-08-24T10:22:03.020Z,52.94
2022-08-24T10:25:10.608Z,52.87
2022-08-24T10:28:02.027Z,53.03
2022-08-24T10:31:02.614Z,53.34
2022-08-24T10:34:10.710Z,54.13
2022-08-24T10:37:10.807Z,53.29
2022-08-24T10:40:26.687Z,52.85
2022-08-24T10:43:39.039Z,53.51
2022-08-24T10:46:23.716Z,54.26
2022-08-24T10:49:30.373Z,53.32
2022-08-24T10:52:44.670Z,53.83
2022-08-24T10:55:37.625Z,54.33
2022-08-24T10:59:11.678Z,54.81
2022-08-24T11:02:15.929Z,53.39
2022-08-24T11:05:08.608Z,53.55
2022-08-24T11:12:04.154Z,53.67
2022-08-24T11:15:00.234Z,53.78
2022-08-24T11:18:13.925Z,51.93
2022-08-24T11:21:13.644Z,52.92
2022-08-24T11:24:02.490Z,52.48
2022-08-24T11:27:13.770Z,52.59
2022-08-24T11:29:58.732Z,53.21
2022-08-24T11:33:00.749Z,53.53
2022-08-24T11:35:42.869Z,54.83
2022-08-24T11:38:39.679Z,54.10
2022-08-24T11:41:34.602Z,54.30
2022-08-24T11:44:57.612Z,54.83
2022-08-24T11:48:01.841Z,55.77
2022-08-24T11:51:05.502Z,56.44
2022-08-24T11:54:12.622Z,56.27
2022-08-24T11:57:11.882Z,55.72
2022-08-24T12:00:13.662Z,56.17
2022-08-24T12:03:12.041Z,55.50
2022-08-24T12:06:16.684Z,56.77
2022-08-24T12:09:30.716Z,56.68
2022-08-24T12:12:30.865Z,57.13
2022-08-24T12:16:06.778Z,56.37
2022-08-24T12:19:19.571Z,56.56
2022-08-24T12:22:12.629Z,56.38
2022-08-24T12:25:32.585Z,56.22
2022-08-24T12:28:31.613Z,56.31
2022-08-24T12:31:54.095Z,55.94
2022-08-24T12:35:08.679Z,55.26
2022-08-24T12:38:09.209Z,55.90
2022-08-24T12:41:12.137Z,56.83
2022-08-24T12:44:10.950Z,57.05
2022-08-24T12:47:07.682Z,57.84
2022-08-24T12:50:05.707Z,58.29
2022-08-24T12:53:13.462Z,59.29
2022-08-24T12:56:33.585Z,61.21
2022-08-24T12:59:33.044Z,62.17
2022-08-24T13:02:27.673Z,59.30
2022-08-24T13:05:29.971Z,62.00
2022-08-24T13:08:51.636Z,62.61
2022-08-24T13:11:47.619Z,61.43
2022-08-24T13:14:38.006Z,62.30
2022-08-24T13:17:20.816Z,60.83
2022-08-24T13:20:32.719Z,60.62
2022-08-24T13:23:24.993Z,61.64
2022-08-24T13:26:41.613Z,62.79
2022-08-24T13:29:44.670Z,65.32
2022-08-24T13:33:01.802Z,66.22
2022-08-24T13:35:43.776Z,67.04
2022-08-24T13:38:52.350Z,69.80
2022-08-24T13:41:55.636Z,68.02
2022-08-24T13:45:00.896Z,66.82
2022-08-24T13:48:10.706Z,64.08
2022-08-24T13:51:01.883Z,67.37
2022-08-24T13:54:04.588Z,69.04
2022-08-24T13:56:54.999Z,72.43
2022-08-24T14:00:09.621Z,72.84
2022-08-24T14:03:27.767Z,73.58
2022-08-24T14:06:35.817Z,76.12
2022-08-24T14:09:29.040Z,73.90
2022-08-24T14:12:40.636Z,78.58
2022-08-24T14:15:35.072Z,78.46
2022-08-24T14:18:23.649Z,77.77
2022-08-24T14:21:48.754Z,77.56
2022-08-24T14:24:46.118Z,78.13
2022-08-24T14:28:02.833Z,78.59
2022-08-24T14:30:59.628Z,78.40
2022-08-24T14:34:22.737Z,79.96
2022-08-24T14:37:29.616Z,79.14
2022-08-24T14:40:54.630Z,79.01
2022-08-24T14:43:54.973Z,80.88
2022-08-24T14:46:52.748Z,79.79
2022-08-24T14:50:11.983Z,79.84
2022-08-24T14:53:04.689Z,79.62
2022-08-24T14:55:46.936Z,77.39
2022-08-24T14:59:08.691Z,77.46
2022-08-24T15:01:54.021Z,77.54
2022-08-24T15:04:53.700Z,77.19
2022-08-24T15:07:44.421Z,79.52
2022-08-24T15:10:41.585Z,78.04
2022-08-24T15:13:56.796Z,77.79
2022-08-24T15:17:00.844Z,78.55
2022-08-24T15:19:52.564Z,78.06
2022-08-24T15:22:47.843Z,77.86
2022-08-24T15:25:50.595Z,78.49
2022-08-24T15:28:35.953Z,79.36
2022-08-24T15:31:36.611Z,78.99
2022-08-24T15:34:19.437Z,78.74
2022-08-24T15:37:14.674Z,77.43
2022-08-24T15:40:14.491Z,79.09
2022-08-24T15:43:11.679Z,78.43
2022-08-24T15:45:59.092Z,79.18
2022-08-24T15:48:49.908Z,78.70
2022-08-24T15:51:49.797Z,78.46
2022-08-24T15:54:48.580Z,78.77
2022-08-24T15:57:34.122Z,78.40
2022-08-24T16:00:49.734Z,77.82
2022-08-24T16:03:56.582Z,78.23
2022-08-24T16:06:48.734Z,78.27
2022-08-24T16:09:30.867Z,78.11
2022-08-24T16:12:45.695Z,78.69
2022-08-24T16:15:28.974Z,78.96
2022-08-24T16:18:17.565Z,77.73
2022-08-24T16:21:00.097Z,77.91
2022-08-24T16:23:51.586Z,78.07
2022-08-24T16:26:57.998Z,77.86
2022-08-24T16:29:46.598Z,77.83
2022-08-24T16:32:50.226Z,78.44
2022-08-24T16:35:42.885Z,78.95
2022-08-24T16:38:32.700Z,79.12
2022-08-24T16:41:24.687Z,79.37
2022-08-24T16:44:15.032Z,79.54
2022-08-24T16:46:56.642Z,79.33
2022-08-24T16:49:47.672Z,79.60
2022-08-24T16:52:37.701Z,78.95
2022-08-24T16:55:20.063Z,78.49
2022-08-24T16:58:09.643Z,78.06
2022-08-24T17:00:58.707Z,77.73
2022-08-24T17:03:41.079Z,78.06
2022-08-24T17:06:30.691Z,78.73
2022-08-24T17:09:19.895Z,79.37
2022-08-24T17:12:10.192Z,77.81
2022-08-24T17:14:53.731Z,78.63
2022-08-24T17:17:47.892Z,78.83
2022-08-24T17:20:30.583Z,79.09
2022-08-24T17:23:26.668Z,77.92
2022-08-24T17:26:21.822Z,79.61
2022-08-24T17:29:11.659Z,78.59
2022-08-24T17:32:03.727Z,77.78
2022-08-24T17:34:52.705Z,78.59
2022-08-24T17:37:41.024Z,78.83
2022-08-24T17:40:32.789Z,78.40
2022-08-24T17:43:15.718Z,78.66
2022-08-24T17:46:05.738Z,78.96
2022-08-24T17:48:49.131Z,78.91
2022-08-24T17:51:37.764Z,79.08
2022-08-24T17:54:22.933Z,79.11
2022-08-24T17:57:11.593Z,78.88
2022-08-24T17:59:54.078Z,78.91
2022-08-24T18:02:42.733Z,78.18
2022-08-24T18:05:24.957Z,79.00
2022-08-24T18:08:14.677Z,79.31
2022-08-24T18:10:57.054Z,78.53
2022-08-24T18:13:45.671Z,79.12
2022-08-24T18:16:31.227Z,79.01
2022-08-24T18:19:22.958Z,79.69
2022-08-24T18:22:06.972Z,79.34
2022-08-24T18:24:55.761Z,79.10
2022-08-24T18:27:40.955Z,78.78
2022-08-24T18:30:34.716Z,78.32
2022-08-24T18:33:17.172Z,78.30
2022-08-24T18:36:05.976Z,78.40
2022-08-24T18:39:02.746Z,78.57
2022-08-24T18:42:03.676Z,77.68
2022-08-24T18:44:47.181Z,78.49
2022-08-24T18:47:35.669Z,77.47
2022-08-24T18:50:18.556Z,78.76
2022-08-24T18:53:07.684Z,78.24
2022-08-24T18:55:56.701Z,78.52
2022-08-24T18:58:45.767Z,77.26
2022-08-24T19:01:29.769Z,78.24
2022-08-24T19:04:19.671Z,77.73
2022-08-24T19:07:10.828Z,78.52
2022-08-24T19:09:52.666Z,78.77
2022-08-24T19:12:46.789Z,78.21
2022-08-24T19:15:39.780Z,78.33
2022-08-24T19:18:24.663Z,77.94
2022-08-24T19:21:07.680Z,77.98
2022-08-24T19:23:51.053Z,77.64
2022-08-24T19:26:39.648Z,77.61
2022-08-24T19:29:54.102Z,77.84
2022-08-24T19:32:39.681Z,78.05
2022-08-24T19:35:24.012Z,77.64
2022-08-24T19:38:12.672Z,77.89
2022-08-24T19:41:12.558Z,77.31
2022-08-24T19:44:27.212Z,77.75
2022-08-24T19:47:09.981Z,77.94
2022-08-24T19:49:58.669Z,77.87
2022-08-24T19:52:43.390Z,77.47
2022-08-24T19:55:32.667Z,78.67
2022-08-24T19:58:51.643Z,79.17
2022-08-24T20:01:43.709Z,78.69
2022-08-24T20:04:25.990Z,78.10
2022-08-24T20:07:16.694Z,78.41
2022-08-24T20:09:58.972Z,77.94
2022-08-24T20:12:47.655Z,78.46
2022-08-24T20:15:36.681Z,78.27
2022-08-24T20:18:18.865Z,77.47
2022-08-24T20:21:07.685Z,77.73
2022-08-24T20:23:49.951Z,77.31
2022-08-24T20:26:39.673Z,77.49
2022-08-24T20:29:28.659Z,77.08
2022-08-24T20:32:10.963Z,77.44
2022-08-24T20:35:01.680Z,77.87
2022-08-24T20:37:44.062Z,77.27
2022-08-24T20:40:40.663Z,77.13
2022-08-24T20:43:28.936Z,77.16
2022-08-24T20:46:11.755Z,78.46
2022-08-24T20:48:55.847Z,77.23
2022-08-24T20:51:44.652Z,77.24
2022-08-24T20:54:36.612Z,76.59
2022-08-24T20:57:26.252Z,76.77
2022-08-24T21:00:17.680Z,77.14
2022-08-24T21:02:59.847Z,77.28
2022-08-24T21:05:48.676Z,76.82
2022-08-24T21:08:37.652Z,76.82
2022-08-24T21:11:26.687Z,76.43
2022-08-24T21:14:16.659Z,76.13
2022-08-24T21:17:06.665Z,76.51
2022-08-24T21:19:55.650Z,75.99
2022-08-24T21:22:44.660Z,75.90
2022-08-24T21:25:26.913Z,76.44
2022-08-24T21:28:15.666Z,76.18
2022-08-24T21:30:58.998Z,76.33
2022-08-24T21:34:07.674Z,76.85
2022-08-24T21:36:49.923Z,76.44
2022-08-24T21:39:41.657Z,76.00
2022-08-24T21:42:30.646Z,76.65
2022-08-24T21:45:20.669Z,77.04
2022-08-24T21:48:02.970Z,77.38
2022-08-24T21:50:51.679Z,77.13
2022-08-24T21:53:33.963Z,76.67
2022-08-24T21:56:32.643Z,76.79
2022-08-24T21:59:16.000Z,76.18
2022-08-24T22:02:05.005Z,77.66
2022-08-24T22:04:46.833Z,76.41
2022-08-24T22:07:43.642Z,76.42
2022-08-24T22:10:27.103Z,76.99
2022-08-24T22:13:15.664Z,77.15
2022-08-24T22:15:57.950Z,76.64
2022-08-24T22:18:47.659Z,77.42
2022-08-24T22:21:36.270Z,76.88
2022-08-24T22:24:25.669Z,77.35
2022-08-24T22:27:07.912Z,77.04
2022-08-24T22:29:56.635Z,77.03
2022-08-24T22:32:38.967Z,77.47
2022-08-24T22:35:27.632Z,77.94
2022-08-24T22:38:10.970Z,77.76
2022-08-24T22:41:03.647Z,76.74
2022-08-24T22:44:04.290Z,76.65
2022-08-24T22:46:58.654Z,77.07
2022-08-24T22:49:45.885Z,77.65
2022-08-24T22:52:34.648Z,77.13
2022-08-24T22:55:17.843Z,76.96
2022-08-24T22:58:07.642Z,76.88
2022-08-24T23:00:49.930Z,77.01
2022-08-24T23:03:38.726Z,77.85
2022-08-24T23:06:20.841Z,77.72
2022-08-24T23:09:09.683Z,76.75
2022-08-24T23:11:55.756Z,77.46
2022-08-24T23:14:45.648Z,77.72
2022-08-24T23:17:28.873Z,77.25
2022-08-24T23:20:18.641Z,76.57
2022-08-24T23:23:00.950Z,76.81
2022-08-24T23:25:49.642Z,77.66
2022-08-24T23:28:32.517Z,77.28
2022-08-24T23:31:21.741Z,78.61
2022-08-24T23:34:04.999Z,78.14
2022-08-24T23:36:53.653Z,77.92
2022-08-24T23:39:35.954Z,78.33
2022-08-24T23:42:30.776Z,77.72
2022-08-24T23:45:13.091Z,77.32
2022-08-24T23:48:02.750Z,77.73
2022-08-24T23:50:51.686Z,78.41
2022-08-24T23:53:43.118Z,78.24
2022-08-24T23:56:33.943Z,78.84
2022-08-24T23:59:26.634Z,79.24
